createdAt,value
2023-02-14T00:00:52.487Z,2.8
2023-02-14T00:02:55.579Z,2.8
2023-02-14T00:04:58.550Z,2.9
2023-02-14T00:07:01.493Z,2.9
2023-02-14T00:09:04.574Z,2.8
2023-02-14T00:11:07.493Z,2.7
2023-02-14T00:13:13.694Z,2.8
2023-02-14T00:15:16.683Z,2.8
2023-02-14T00:17:19.712Z,2.9
2023-02-14T00:19:22.677Z,2.9
2023-02-14T00:21:25.675Z,2.9
2023-02-14T00:23:28.657Z,2.8
2023-02-14T00:25:31.678Z,2.8
2023-02-14T00:27:37.886Z,2.9
2023-02-14T00:29:40.858Z,2.8
2023-02-14T00:31:43.869Z,2.8
2023-02-14T00:33:46.876Z,2.8
2023-02-14T00:37:52.864Z,2.7
2023-02-14T00:42:02.100Z,2.7
2023-02-14T00:44:05.082Z,2.7
2023-02-14T00:46:08.153Z,2.6
2023-02-14T00:47:11.195Z,2.6
2023-02-14T00:49:14.191Z,2.5
2023-02-14T00:51:17.215Z,2.5
2023-02-14T00:53:20.243Z,2.5
2023-02-14T00:55:26.400Z,2.4
2023-02-14T00:57:29.421Z,2.4
2023-02-14T00:59:32.426Z,2.3
2023-02-14T01:01:35.446Z,2.3
2023-02-14T01:03:38.480Z,2.3
2023-02-14T01:05:41.454Z,2.1
2023-02-14T01:07:44.434Z,2.1
2023-02-14T01:09:50.637Z,2
2023-02-14T01:11:53.653Z,2
2023-02-14T01:13:56.798Z,2
2023-02-14T01:15:59.632Z,2
2023-02-14T01:20:05.662Z,1.9
2023-02-14T01:22:08.661Z,2
2023-02-14T01:24:14.854Z,1.9
2023-02-14T01:26:17.859Z,2
2023-02-14T01:28:20.866Z,2.1
2023-02-14T01:30:23.932Z,2
2023-02-14T01:32:26.827Z,2.1
2023-02-14T01:34:29.846Z,2
2023-02-14T01:36:32.840Z,2.1
2023-02-14T01:38:39.056Z,2.1
2023-02-14T01:43:48.161Z,2.1
2023-02-14T01:47:54.176Z,2.2
2023-02-14T01:54:06.354Z,2
2023-02-14T02:02:18.377Z,1.8
2023-02-14T02:06:27.540Z,1.9
2023-02-14T02:12:36.536Z,1.7
2023-02-14T02:16:42.589Z,1.7
2023-02-14T02:18:45.544Z,1.7
2023-02-14T02:27:00.747Z,1.6
2023-02-14T02:29:03.701Z,1.6
2023-02-14T02:31:06.824Z,1.5
2023-02-14T02:33:11.299Z,1.5
2023-02-14T02:35:17.468Z,1.5
2023-02-14T02:37:20.470Z,1.5
2023-02-14T02:39:23.433Z,1.4
2023-02-14T02:41:53.365Z,1.4
2023-02-14T02:54:14.509Z,1.5
2023-02-14T03:00:23.502Z,1.6
2023-02-14T03:04:32.714Z,1.6
2023-02-14T03:06:35.668Z,1.5
2023-02-14T03:16:53.808Z,1.4
2023-02-14T03:33:20.959Z,1.3
2023-02-14T03:36:27.026Z,1.2
2023-02-14T03:38:30.013Z,1.2
2023-02-14T03:40:32.994Z,1.2
2023-02-14T03:42:35.997Z,1.1
2023-02-14T03:44:42.181Z,1.1
2023-02-14T03:46:45.206Z,1
2023-02-14T03:48:48.112Z,1.1
2023-02-14T03:50:51.123Z,1.1
2023-02-14T03:52:54.089Z,1.1
2023-02-14T03:54:57.074Z,1.1
2023-02-14T03:57:00.048Z,1
2023-02-14T03:59:06.241Z,1
2023-02-14T04:01:09.203Z,1.1
2023-02-14T04:03:12.224Z,1.1
2023-02-14T04:05:15.173Z,1
2023-02-14T04:07:18.136Z,0.9
2023-02-14T04:11:24.733Z,1
2023-02-14T04:13:30.271Z,0.9
2023-02-14T04:15:33.277Z,1
2023-02-14T04:17:36.225Z,0.9
2023-02-14T04:19:39.180Z,0.9
2023-02-14T04:21:42.149Z,1
2023-02-14T04:23:45.134Z,1
2023-02-14T04:25:48.087Z,1
2023-02-14T04:29:57.308Z,1
2023-02-14T04:32:00.386Z,1
2023-02-14T04:33:03.281Z,1
2023-02-14T04:35:06.242Z,1
2023-02-14T04:37:09.208Z,0.9
2023-02-14T04:39:12.165Z,0.9
2023-02-14T04:41:18.353Z,0.8
2023-02-14T04:43:21.339Z,0.8
2023-02-14T04:45:24.278Z,0.8
2023-02-14T04:47:27.235Z,0.8
2023-02-14T04:49:30.200Z,0.7
2023-02-14T04:51:33.166Z,0.8
2023-02-14T04:53:36.125Z,0.7
2023-02-14T04:55:42.305Z,0.7
2023-02-14T04:57:45.279Z,0.7
2023-02-14T04:59:48.210Z,0.6
2023-02-14T05:01:51.183Z,0.6
2023-02-14T05:03:54.118Z,0.6
2023-02-14T05:05:57.076Z,0.6
2023-02-14T05:10:06.198Z,0.5
2023-02-14T05:12:09.162Z,0.5
2023-02-14T05:14:12.110Z,0.5
2023-02-14T05:16:15.146Z,0.6
2023-02-14T05:18:17.998Z,0.6
2023-02-14T05:22:23.927Z,0.5
2023-02-14T05:28:35.959Z,0.6
2023-02-14T05:31:42.145Z,0.6
2023-02-14T05:33:44.950Z,0.7
2023-02-14T05:35:47.887Z,0.6
2023-02-14T05:39:56.994Z,0.6
2023-02-14T05:41:59.923Z,0.7
2023-02-14T05:44:02.885Z,0.7
2023-02-14T05:52:17.886Z,0.8
2023-02-14T05:56:23.764Z,0.8
2023-02-14T06:02:32.664Z,0.9
2023-02-14T06:04:35.748Z,0.8
2023-02-14T06:06:41.695Z,0.8
2023-02-14T06:08:44.641Z,0.9
2023-02-14T06:10:47.566Z,0.9
2023-02-14T06:12:50.523Z,0.9
2023-02-14T06:23:08.408Z,1
2023-02-14T06:29:44.237Z,1
2023-02-14T06:40:02.211Z,0.8
2023-02-14T06:46:11.141Z,0.8
2023-02-14T06:48:17.173Z,0.8
2023-02-14T06:54:26.012Z,0.8
2023-02-14T06:58:31.881Z,0.9
2023-02-14T07:00:34.818Z,0.9
2023-02-14T07:04:43.905Z,1
2023-02-14T07:06:46.881Z,1
2023-02-14T07:08:49.790Z,1
2023-02-14T07:12:55.645Z,1
2023-02-14T07:19:07.696Z,1.1
2023-02-14T07:21:10.603Z,1.2
2023-02-14T07:22:13.678Z,1.2
2023-02-14T07:24:16.641Z,1.3
2023-02-14T07:26:19.543Z,1.4
2023-02-14T07:28:22.490Z,1.4
2023-02-14T07:30:28.867Z,1.4
2023-02-14T07:32:31.583Z,1.4
2023-02-14T07:34:34.522Z,1.5
2023-02-14T07:36:37.467Z,1.5
2023-02-14T07:38:40.388Z,1.5
2023-02-14T07:40:43.347Z,1.5
2023-02-14T07:42:46.276Z,1.6
2023-02-14T07:44:52.447Z,1.6
2023-02-14T07:46:55.372Z,1.7
2023-02-14T07:48:58.323Z,1.8
2023-02-14T07:51:01.772Z,1.9
2023-02-14T07:53:04.232Z,1.9
2023-02-14T07:55:07.158Z,2
2023-02-14T07:57:10.113Z,2.1
2023-02-14T07:59:16.253Z,2.2
2023-02-14T08:01:19.281Z,2.3
2023-02-14T08:03:22.161Z,2.2
2023-02-14T08:05:25.184Z,2.4
2023-02-14T08:07:28.072Z,2.4
2023-02-14T08:09:31.059Z,2.4
2023-02-14T08:11:33.958Z,2.4
2023-02-14T08:18:49.172Z,2.9
2023-02-14T08:22:55.094Z,3.1
2023-02-14T08:24:58.068Z,3.4
2023-02-14T08:27:05.831Z,4.6
2023-02-14T08:29:08.810Z,5.9
2023-02-14T08:31:11.791Z,7.8
2023-02-14T08:33:14.791Z,9
2023-02-14T08:35:17.757Z,9.8
2023-02-14T08:37:20.748Z,10.7
2023-02-14T08:39:23.749Z,10.7
2023-02-14T08:41:29.984Z,11.2
2023-02-14T08:43:34.369Z,10.8
2023-02-14T08:45:36.013Z,10.3
2023-02-14T08:47:39.049Z,10.8
2023-02-14T08:49:42.096Z,11.2
2023-02-14T08:51:45.105Z,10.9
2023-02-14T08:53:48.132Z,10.2
2023-02-14T08:55:54.437Z,9.8
2023-02-14T08:57:57.464Z,9.8
2023-02-14T09:00:00.519Z,10
2023-02-14T09:02:03.600Z,10.8
2023-02-14T09:04:06.671Z,12.3
2023-02-14T09:06:09.706Z,13.2
2023-02-14T09:08:12.780Z,13.8
2023-02-14T09:14:25.255Z,11.9
2023-02-14T09:17:31.550Z,12.3
2023-02-14T09:19:34.570Z,12.2
2023-02-14T09:21:37.659Z,12.3
2023-02-14T09:23:43.952Z,12.4
2023-02-14T09:25:47.040Z,12.4
2023-02-14T09:27:50.159Z,12.9
2023-02-14T09:31:56.480Z,12
2023-02-14T09:33:59.471Z,11.9
2023-02-14T09:36:02.580Z,11.9
2023-02-14T09:38:08.905Z,12
2023-02-14T09:42:15.134Z,12.4
2023-02-14T09:44:18.272Z,12.8
2023-02-14T09:46:21.455Z,12.9
2023-02-14T09:48:25.711Z,12.6
2023-02-14T09:52:34.006Z,12.7
2023-02-14T09:56:50.537Z,13.8
2023-02-14T09:58:43.436Z,14.2
2023-02-14T10:00:46.651Z,14.9
2023-02-14T10:02:49.706Z,14.3
2023-02-14T10:04:52.732Z,14.7
2023-02-14T10:06:58.888Z,15.2
2023-02-14T10:09:01.938Z,14.7
2023-02-14T10:11:05.017Z,13.1
2023-02-14T10:13:29.000Z,10.7
2023-02-14T10:15:32.078Z,10.6
2023-02-14T10:17:35.306Z,10.5
2023-02-14T10:19:41.269Z,10.3
2023-02-14T10:21:45.936Z,10.2
2023-02-14T10:23:47.450Z,11
2023-02-14T10:25:50.582Z,11
2023-02-14T10:29:56.942Z,11.8
2023-02-14T10:32:00.064Z,12
2023-02-14T10:34:06.366Z,12.3
2023-02-14T10:36:09.498Z,12.4
2023-02-14T10:38:12.632Z,13
2023-02-14T10:40:17.426Z,12.9
2023-02-14T10:42:18.910Z,12.7
2023-02-14T10:44:22.050Z,12.7
2023-02-14T10:46:25.351Z,13.3
2023-02-14T10:50:34.500Z,13.2
2023-02-14T10:52:37.525Z,13.5
2023-02-14T10:54:40.555Z,13.8
2023-02-14T11:00:49.692Z,13.3
2023-02-14T11:02:55.852Z,13
2023-02-14T11:04:58.862Z,13.1
2023-02-14T11:07:01.885Z,13.3
2023-02-14T11:08:04.969Z,14.1
2023-02-14T11:12:11.128Z,14.7
2023-02-14T11:16:20.226Z,15
2023-02-14T11:20:26.285Z,15.1
2023-02-14T11:22:29.326Z,15.8
2023-02-14T11:24:32.356Z,15.3
2023-02-14T11:28:41.014Z,15.4
2023-02-14T11:32:47.534Z,14.8
2023-02-14T11:34:50.551Z,15.8
2023-02-14T11:36:53.596Z,16.1
2023-02-14T11:38:56.591Z,16.5
2023-02-14T11:40:59.934Z,16.5
2023-02-14T11:43:14.277Z,16.9
2023-02-14T11:45:08.745Z,16.6
2023-02-14T11:47:11.737Z,16.7
2023-02-14T11:49:14.742Z,17.1
2023-02-14T11:51:17.754Z,17.9
2023-02-14T11:53:20.821Z,16.7
2023-02-14T11:57:26.783Z,17.2
2023-02-14T11:59:32.906Z,17.3
2023-02-14T12:03:38.916Z,17.4
2023-02-14T12:08:47.916Z,16.4
2023-02-14T12:10:50.909Z,16.7
2023-02-14T12:12:57.034Z,17.5
2023-02-14T12:15:00.016Z,17.7
2023-02-14T12:17:02.992Z,18.1
2023-02-14T12:19:05.998Z,18.5
2023-02-14T12:21:08.953Z,18.6
2023-02-14T12:27:21.993Z,18.6
2023-02-14T12:29:24.926Z,18.9
2023-02-14T12:31:28.059Z,18.2
2023-02-14T12:33:30.886Z,18.1
2023-02-14T12:35:33.847Z,18.6
2023-02-14T12:39:39.768Z,18.1
2023-02-14T12:41:45.865Z,18.1
2023-02-14T12:43:48.796Z,18.3
2023-02-14T12:49:57.654Z,17.7
2023-02-14T12:52:00.625Z,18.1
2023-02-14T12:54:03.579Z,18.6
2023-02-14T12:56:09.638Z,18.8
2023-02-14T12:58:12.585Z,19
2023-02-14T13:09:33.600Z,18.8
2023-02-14T13:13:39.291Z,19
2023-02-14T13:15:42.221Z,19.5
2023-02-14T13:21:50.977Z,19.6
2023-02-14T13:25:59.965Z,21.3
2023-02-14T13:28:02.894Z,20.3
2023-02-14T13:30:05.829Z,20
2023-02-14T13:40:23.478Z,19.8
2023-02-14T13:42:26.371Z,19.3
2023-02-14T13:44:29.309Z,20.6
2023-02-14T13:46:32.321Z,20.9
2023-02-14T13:48:37.403Z,20.7
2023-02-14T13:50:38.025Z,20.7
2023-02-14T13:52:44.112Z,20.1
2023-02-14T13:54:47.011Z,20
2023-02-14T13:56:49.919Z,20.8
2023-02-14T14:01:21.970Z,20.1
2023-02-14T14:03:24.864Z,19.9
2023-02-14T14:07:33.823Z,20.1
2023-02-14T14:13:42.641Z,19.3
2023-02-14T14:15:45.508Z,19.2
2023-02-14T14:19:56.031Z,15.5
2023-02-14T14:21:58.924Z,14.9
2023-02-14T14:24:01.872Z,14.5
2023-02-14T14:26:04.801Z,14.6
2023-02-14T14:28:07.767Z,14.6
2023-02-14T14:32:13.808Z,15.2
2023-02-14T14:34:19.807Z,16.4
2023-02-14T14:36:22.782Z,16.5
2023-02-14T14:38:25.775Z,15.5
2023-02-14T14:42:31.762Z,13.9
2023-02-14T14:44:34.766Z,13.7
2023-02-14T14:48:43.865Z,13.6
2023-02-14T14:53:52.946Z,13.5
2023-02-14T14:55:55.975Z,13.4
2023-02-14T14:57:59.001Z,13.4
2023-02-14T15:00:02.147Z,13.5
2023-02-14T15:02:08.174Z,14.2
2023-02-14T15:04:12.430Z,14
2023-02-14T15:06:14.244Z,13.9
2023-02-14T15:08:17.302Z,14.5
2023-02-14T15:10:20.356Z,14.9
2023-02-14T15:12:23.405Z,16.2
2023-02-14T15:14:26.443Z,17.2
2023-02-14T15:16:32.656Z,17.4
2023-02-14T15:18:35.598Z,17.6
2023-02-14T15:20:38.655Z,17.8
2023-02-14T15:22:41.731Z,16.2
2023-02-14T15:24:44.775Z,14.3
2023-02-14T15:26:47.807Z,13.3
2023-02-14T15:28:50.852Z,12.9
2023-02-14T15:30:57.083Z,13.2
2023-02-14T15:33:00.023Z,13.5
2023-02-14T15:35:03.069Z,14.3
2023-02-14T15:37:06.347Z,14.6
2023-02-14T15:39:09.163Z,15.3
2023-02-14T15:41:12.198Z,15.4
2023-02-14T15:43:15.249Z,14.9
2023-02-14T15:45:21.431Z,13.3
2023-02-14T15:47:24.473Z,13
2023-02-14T15:49:27.495Z,12.5
2023-02-14T15:50:30.590Z,12.4
2023-02-14T15:52:33.674Z,12.3
2023-02-14T15:54:36.737Z,12.2
2023-02-14T15:56:39.731Z,12
2023-02-14T15:58:45.928Z,11.9
2023-02-14T16:00:48.945Z,11.8
2023-02-14T16:02:52.156Z,11.7
2023-02-14T16:04:55.066Z,11.8
2023-02-14T16:06:58.117Z,11.8
2023-02-14T16:09:01.195Z,11.7
2023-02-14T16:11:04.228Z,11.7
2023-02-14T16:15:13.418Z,11.5
2023-02-14T16:21:22.556Z,11.4
2023-02-14T16:23:25.621Z,11.3
2023-02-14T16:27:35.058Z,11.2
2023-02-14T16:29:38.064Z,11.1
2023-02-14T16:31:48.525Z,11.1
2023-02-14T16:33:44.396Z,11
2023-02-14T16:44:03.350Z,10.8
2023-02-14T16:47:09.639Z,10.7
2023-02-14T16:49:12.792Z,10.6
2023-02-14T16:51:15.927Z,10.6
2023-02-14T16:53:19.097Z,10.5
2023-02-14T16:55:25.438Z,10.5
2023-02-14T16:57:28.581Z,10.4
2023-02-14T16:59:31.714Z,10.5
2023-02-14T17:01:34.908Z,10.4
2023-02-14T17:03:38.007Z,10.3
2023-02-14T17:05:41.154Z,10.3
2023-02-14T17:07:44.261Z,10.3
2023-02-14T17:09:50.738Z,10.3
2023-02-14T17:11:53.741Z,10.2
2023-02-14T17:13:56.877Z,10.2
2023-02-14T17:16:00.058Z,10
2023-02-14T17:18:03.111Z,10.1
2023-02-14T17:20:06.336Z,10
2023-02-14T17:22:09.404Z,9.8
2023-02-14T17:24:15.744Z,9.8
2023-02-14T17:26:18.896Z,9.8
2023-02-14T17:28:22.025Z,9.7
2023-02-14T17:30:25.233Z,9.7
2023-02-14T17:32:28.364Z,9.5
2023-02-14T17:34:31.459Z,9.7
2023-02-14T17:36:34.571Z,9.6
2023-02-14T17:38:40.925Z,9.5
2023-02-14T17:40:44.038Z,9.6
2023-02-14T17:42:47.173Z,9.5
2023-02-14T17:47:14.087Z,9.5
2023-02-14T17:49:17.227Z,9.4
2023-02-14T17:51:23.578Z,9.3
2023-02-14T17:55:29.818Z,9.2
2023-02-14T17:59:36.097Z,9
2023-02-14T18:01:39.285Z,9
2023-02-14T18:09:55.006Z,8.6
2023-02-14T18:14:01.240Z,8.5
2023-02-14T18:16:04.466Z,8.3
2023-02-14T18:18:07.523Z,8.3
2023-02-14T18:20:13.849Z,8.1
2023-02-14T18:22:16.977Z,8.1
2023-02-14T18:24:20.097Z,8.1
2023-02-14T18:26:23.207Z,8
2023-02-14T18:28:26.328Z,7.9
2023-02-14T18:30:29.500Z,7.9
2023-02-14T18:34:38.904Z,7.5
2023-02-14T18:36:42.031Z,7.6
2023-02-14T18:38:45.138Z,7.5
2023-02-14T18:39:48.307Z,7.4
2023-02-14T18:41:51.424Z,7.5
2023-02-14T18:43:54.559Z,7.4
2023-02-14T18:45:57.686Z,7.4
2023-02-14T18:48:04.001Z,7.1
2023-02-14T18:50:07.127Z,7.1
2023-02-14T18:54:13.335Z,7
2023-02-14T18:56:16.479Z,6.9
2023-02-14T19:06:35.208Z,6.8
2023-02-14T19:08:38.319Z,6.6
2023-02-14T19:10:41.422Z,6.6
2023-02-14T19:12:44.494Z,6.6
2023-02-14T19:14:47.589Z,6.6
2023-02-14T19:16:54.482Z,6.6
2023-02-14T19:18:56.963Z,6.6
2023-02-14T19:21:00.488Z,6.5
2023-02-14T19:23:03.172Z,6.5
2023-02-14T19:25:06.260Z,6.2
2023-02-14T19:27:09.362Z,6.1
2023-02-14T19:31:18.905Z,5.9
2023-02-14T19:33:21.864Z,5.9
2023-02-14T19:35:24.946Z,5.9
2023-02-14T19:36:28.080Z,5.9
2023-02-14T19:38:31.189Z,6
2023-02-14T19:40:34.282Z,6
2023-02-14T19:42:37.374Z,6
2023-02-14T19:44:43.673Z,5.9
2023-02-14T19:46:46.763Z,5.9
2023-02-14T19:48:49.847Z,5.8
2023-02-14T19:50:52.942Z,5.8
2023-02-14T19:52:56.041Z,5.8
2023-02-14T19:54:59.109Z,5.9
2023-02-14T19:57:02.210Z,5.8
2023-02-14T19:59:08.500Z,5.8
2023-02-14T20:01:11.588Z,5.8
2023-02-14T20:03:14.649Z,5.8
2023-02-14T20:05:17.762Z,5.7
2023-02-14T20:07:20.822Z,5.7
2023-02-14T20:09:23.888Z,5.5
2023-02-14T20:11:26.956Z,5.3
2023-02-14T20:13:33.244Z,5.2
2023-02-14T20:19:43.976Z,5.3
2023-02-14T20:23:50.127Z,5.3
2023-02-14T20:25:53.189Z,5.2
2023-02-14T20:32:05.700Z,5.2
2023-02-14T20:33:08.742Z,5.3
2023-02-14T20:35:11.811Z,5.1
2023-02-14T20:37:14.868Z,5.1
2023-02-14T20:39:17.947Z,5.1
2023-02-14T20:41:24.213Z,5.1
2023-02-14T20:43:27.304Z,5.1
2023-02-14T20:45:30.356Z,5
2023-02-14T20:47:33.427Z,5
2023-02-14T20:49:36.471Z,5
2023-02-14T20:51:39.554Z,4.8
2023-02-14T20:53:42.591Z,4.7
2023-02-14T20:55:48.887Z,4.6
2023-02-14T20:59:54.998Z,4.7
2023-02-14T21:01:58.110Z,4.6
2023-02-14T21:04:01.208Z,4.7
2023-02-14T21:18:25.780Z,4.6
2023-02-14T21:20:28.840Z,4.6
2023-02-14T21:24:38.148Z,4.6
2023-02-14T21:26:41.206Z,4.6
2023-02-14T21:28:44.248Z,4.7
2023-02-14T21:31:14.212Z,4.6
2023-02-14T21:33:17.188Z,4.6
2023-02-14T21:35:20.219Z,4.6
2023-02-14T21:37:26.500Z,4.4
2023-02-14T21:39:29.537Z,4.4
2023-02-14T21:43:35.648Z,4.4
2023-02-14T21:49:44.780Z,4
2023-02-14T21:51:51.039Z,4.1
2023-02-14T21:53:54.084Z,4
2023-02-14T21:55:57.118Z,4
2023-02-14T21:58:00.169Z,4.1
2023-02-14T22:00:03.651Z,4
2023-02-14T22:02:06.668Z,4
2023-02-14T22:04:09.723Z,3.9
2023-02-14T22:06:15.966Z,3.8
2023-02-14T22:08:19.008Z,3.8
2023-02-14T22:12:25.092Z,3.9
2023-02-14T22:14:28.132Z,4
2023-02-14T22:16:31.169Z,4
2023-02-14T22:18:34.204Z,3.8
2023-02-14T22:20:40.453Z,3.7
2023-02-14T22:22:43.503Z,3.6
2023-02-14T22:29:55.772Z,3.5
2023-02-14T22:31:58.916Z,3.6
2023-02-14T22:34:05.000Z,3.6
2023-02-14T22:36:08.046Z,3.6
2023-02-14T22:38:12.110Z,3.5
2023-02-14T22:40:14.110Z,3.6
2023-02-14T22:42:17.134Z,3.4
2023-02-14T22:44:20.187Z,3.5
2023-02-14T22:46:23.222Z,3.6
2023-02-14T22:52:35.498Z,3.5
2023-02-14T22:54:38.543Z,3.5
2023-02-14T22:56:41.582Z,3.4
2023-02-14T22:58:44.602Z,3.4
2023-02-14T23:00:47.600Z,3.3
2023-02-14T23:02:53.885Z,3.4
2023-02-14T23:04:57.296Z,3.2
2023-02-14T23:06:59.902Z,3.2
2023-02-14T23:09:02.906Z,3.3
2023-02-14T23:11:05.919Z,3.2
2023-02-14T23:13:08.963Z,3.2
2023-02-14T23:15:11.948Z,3.2
2023-02-14T23:17:18.202Z,3.2
2023-02-14T23:21:24.234Z,3.1
2023-02-14T23:26:33.377Z,3.1
2023-02-14T23:30:42.604Z,3.2
2023-02-14T23:32:45.624Z,3
2023-02-14T23:34:48.630Z,3
2023-02-14T23:38:54.653Z,2.9
2023-02-14T23:40:57.680Z,2.8
2023-02-14T23:43:00.698Z,2.7
2023-02-14T23:45:06.919Z,2.7
2023-02-14T23:47:09.927Z,2.7
2023-02-14T23:53:18.961Z,2.6
2023-02-14T23:55:21.975Z,2.7
2023-02-14T23:57:24.962Z,2.7
2023-02-14T23:59:31.190Z,2.8
